Salacia — WDF4062 — position and weather

sailwx.info

Track history (hours):
 
Tides and Currents Weather Stations Pressure Air Temp Water Temp Dewpoint Dewpoint Depression Visibility Wind Speed Wind Dir Waves Ship Positions

Salacia

Owner: Boston Harbor Cruises, Boston, MA. More information available from US FCC via Universal Licensing System and Coast Guard Vessel Documentation Center.

Last reported at 2017-Oct-22 21:22 UTC. Time now 2017-Oct-22 23:09 UTC.
Position N 42°15' W 070°55'.

Length 44 m.

Type: High speed craft. MMSI: 367447520.

Date/timePositionNaut miles runAvg speedWind from/ knotsBaromVisibWave heightAir tempDewpointWater temp
2017-Oct-22 21:22N 42°15' W 070°55'821.5
2017-Oct-22 21:00N 42°21' W 071°02'1 1.6
2017-Oct-22 20:30N 42°22' W 071°03'0 0.0
2017-Oct-22 20:00N 42°22' W 071°03'1122.8
2017-Oct-22 19:30N 42°21' W 070°48'1631.4
2017-Oct-22 19:00N 42°21' W 070°26'5 9.7
2017-Oct-22 18:30N 42°21' W 070°20'1 3.0
2017-Oct-22 18:00N 42°22' W 070°21'3 5.6
2017-Oct-22 17:31N 42°22' W 070°25'3 6.9
2017-Oct-22 17:01N 42°21' W 070°30'1530.8
2017-Oct-22 16:30N 42°19' W 070°50'1017.6
2017-Oct-22 15:58N 42°22' W 071°03'0 0.0
2017-Oct-22 15:30N 42°22' W 071°03'0 0.0
2017-Oct-22 15:00N 42°22' W 071°03'0 0.0
2017-Oct-22 14:30N 42°22' W 071°03'1 0.9
2017-Oct-22 13:54N 42°22' W 071°02'0 0.5
2017-Oct-22 13:30N 42°22' W 071°02'811.6
2017-Oct-22 12:49N 42°15' W 070°55'0 0.0
2017-Oct-21 21:21N 42°16' W 070°55'822.5
2017-Oct-21 21:00N 42°21' W 071°02'1 1.2
2017-Oct-21 20:30N 42°22' W 071°03'0 0.0
2017-Oct-21 19:58N 42°22' W 071°03'919.4
2017-Oct-21 19:31N 42°24' W 070°51'1529.8
2017-Oct-21 19:00N 42°34' W 070°37'611.5
2017-Oct-21 18:31N 42°38' W 070°31'1 2.7
2017-Oct-21 18:01N 42°37' W 070°29'0 0.2
2017-Oct-21 17:31N 42°37' W 070°30'917.2
2017-Oct-21 17:00N 42°31' W 070°39'1830.2
2017-Oct-21 16:25N 42°20' W 070°58'4 7.1
2017-Oct-21 15:52N 42°22' W 071°03'1 1.6
2017-Oct-21 15:31N 42°22' W 071°02'1 0.3
2017-Oct-21 10:16N 42°23' W 071°03'1 4.6
2017-Oct-21 10:00N 42°22' W 071°02'816.9
2017-Oct-21 09:30N 42°15' W 070°55'0 0.0
2017-Oct-21 01:02N 42°15' W 070°55'0 6.6
2017-Oct-21 00:59N 42°16' W 070°55'810.8
2017-Oct-21 00:15N 42°21' W 071°03'517.9
2017-Oct-20 23:59N 42°18' W 070°58'4 7.6
2017-Oct-20 23:30N 42°15' W 070°55'815.0
2017-Oct-20 22:57N 42°21' W 071°03'3 6.3
2017-Oct-20 22:30N 42°20' W 070°60'6 9.8
2017-Oct-20 21:56N 42°15' W 070°55'717.6
2017-Oct-20 21:30N 42°21' W 071°02'1 2.2
2017-Oct-20 21:00N 42°22' W 071°03'0 0.0
2017-Oct-20 20:30N 42°22' W 071°03'0 0.0
2017-Oct-20 20:00N 42°22' W 071°03'1122.9
2017-Oct-20 19:30N 42°18' W 070°48'2411.4
2017-Oct-20 17:22N 42°12' W 070°17'1131.1
2017-Oct-20 17:01N 42°16' W 070°31'1631.4
2017-Oct-20 16:30N 42°19' W 070°52'912.7
2017-Oct-20 15:49N 42°22' W 071°03'0 0.0
2017-Oct-20 15:30N 42°22' W 071°03'0 0.0
2017-Oct-20 14:54N 42°22' W 071°03'0 0.0
2017-Oct-20 14:28N 42°22' W 071°03'0 0.3
2017-Oct-20 13:30N 42°21' W 071°03'612.0
2017-Oct-20 13:00N 42°17' W 070°57'2 3.8
2017-Oct-20 12:30N 42°16' W 070°55'811.2
2017-Oct-20 11:48N 42°21' W 071°03'518.5
2017-Oct-20 11:30N 42°17' W 070°58'3 5.7
2017-Oct-20 11:00N 42°15' W 070°55'1 1.0
2017-Oct-20 10:15N 42°16' W 070°55'0 0.0
2017-Oct-20 09:54N 42°16' W 070°55'1 1.6
2017-Oct-20 09:26N 42°15' W 070°55'0 0.0
2017-Oct-20 00:57N 42°15' W 070°55'818.8
2017-Oct-20 00:31N 42°21' W 071°03'4 8.7
2017-Oct-20 00:01N 42°18' W 070°59'4 8.0
2017-Oct-19 23:30N 42°15' W 070°55'816.6
2017-Oct-19 23:00N 42°21' W 071°03'2 4.1
2017-Oct-19 22:31N 42°21' W 071°00'713.0
2017-Oct-19 22:00N 42°15' W 070°55'713.9
2017-Oct-19 21:31N 42°21' W 071°01'1 2.8
2017-Oct-19 21:00N 42°21' W 071°03'0 0.5
2017-Oct-19 20:30N 42°22' W 071°03'0 0.0
2017-Oct-19 20:00N 42°22' W 071°03'0 0.0
2017-Oct-19 19:30N 42°22' W 071°03'0 0.5
2017-Oct-19 19:01N 42°21' W 071°03'816.7
2017-Oct-19 18:30N 42°15' W 070°55'0 0.8
2017-Oct-19 18:01N 42°16' W 070°55'816.1
2017-Oct-19 17:30N 42°21' W 071°03'0 0.5
2017-Oct-19 17:00N 42°22' W 071°03'0 0.0
2017-Oct-19 16:30N 42°22' W 071°03'0 0.0
2017-Oct-19 16:00N 42°22' W 071°03'1 1.5
2017-Oct-19 15:31N 42°21' W 071°02'815.6
2017-Oct-19 15:00N 42°15' W 070°55'1 1.0
2017-Oct-19 14:30N 42°16' W 070°55'815.9
2017-Oct-19 14:00N 42°21' W 071°03'1 1.3
2017-Oct-19 13:30N 42°22' W 071°02'510.2
2017-Oct-19 13:01N 42°18' W 070°58'3 5.3
2017-Oct-19 12:30N 42°16' W 070°55'815.8
2017-Oct-19 12:00N 42°21' W 071°03'611.5
2017-Oct-19 11:31N 42°17' W 070°57'3 5.1
2017-Oct-19 11:01N 42°15' W 070°55'1 1.2
2017-Oct-19 10:30N 42°16' W 070°55'0 0.0
2017-Oct-19 10:00N 42°16' W 070°55'1 1.5
2017-Oct-19 09:30N 42°15' W 070°55'0 0.0
2017-Oct-19 00:58N 42°15' W 070°55'818.2
2017-Oct-19 00:30N 42°21' W 071°03'3 6.3
2017-Oct-19 00:00N 42°19' W 070°60'510.6
2017-Oct-18 23:30N 42°15' W 070°55'816.7
2017-Oct-18 23:00N 42°21' W 071°03'3 6.5
2017-Oct-18 22:31N 42°19' W 070°60'510.3
2017-Oct-18 22:00N 42°15' W 070°55'612.9
2017-Oct-18 21:30N 42°20' W 071°00'2 3.9
2017-Oct-18 21:01N 42°21' W 071°03'0 0.5
2017-Oct-18 20:30N 42°22' W 071°03'0 0.0
2017-Oct-18 20:00N 42°22' W 071°03'0 0.0
2017-Oct-18 19:30N 42°22' W 071°03'0 0.5
2017-Oct-18 19:00N 42°21' W 071°03'816.5
2017-Oct-18 18:30N 42°15' W 070°55'0 0.0
2017-Oct-18 18:00N 42°15' W 070°55'816.7
2017-Oct-18 17:30N 42°21' W 071°03'2 0.6
2017-Oct-18 14:43N 42°23' W 071°03'1 1.9
2017-Oct-18 14:01N 42°22' W 071°02'0 0.7
2017-Oct-18 13:31N 42°21' W 071°03'611.6
2017-Oct-18 13:01N 42°17' W 070°57'2 3.7
2017-Oct-18 12:30N 42°16' W 070°55'815.6
2017-Oct-18 12:00N 42°21' W 071°03'611.2
2017-Oct-18 11:31N 42°17' W 070°58'3 5.6
2017-Oct-18 11:00N 42°15' W 070°55'1 1.5
2017-Oct-18 10:30N 42°16' W 070°55'0 0.0
2017-Oct-18 10:00N 42°16' W 070°55'1 1.5
2017-Oct-18 09:30N 42°15' W 070°55'0 0.0
2017-Oct-18 00:55N 42°15' W 070°55'819.9
2017-Oct-18 00:30N 42°21' W 071°03'3 5.9
2017-Oct-18 00:00N 42°20' W 070°60'510.8
2017-Oct-17 23:30N 42°15' W 070°55'816.6
2017-Oct-17 23:00N 42°21' W 071°03'3 6.0
2017-Oct-17 22:31N 42°20' W 070°60'510.8
2017-Oct-17 22:00N 42°15' W 070°55'713.1
2017-Oct-17 21:31N 42°20' W 071°01'2 3.7
2017-Oct-17 21:00N 42°21' W 071°03'0 0.4
2017-Oct-17 20:30N 42°22' W 071°03'0 0.0
2017-Oct-17 20:00N 42°22' W 071°03'815.2
2017-Oct-17 19:31N 42°19' W 070°53'18 7.3
2017-Oct-17 16:59N 42°14' W 070°29'1532.0
2017-Oct-17 16:31N 42°18' W 070°49'1121.0
2017-Oct-17 16:00N 42°22' W 071°03'0 0.0
2017-Oct-17 15:30N 42°22' W 071°03'0 0.0
2017-Oct-17 15:00N 42°22' W 071°03'1 1.1
2017-Oct-17 14:30N 42°22' W 071°02'0 0.7
2017-Oct-17 14:00N 42°21' W 071°02'510.5
2017-Oct-17 13:30N 42°17' W 070°58'3 5.1
2017-Oct-17 13:00N 42°16' W 070°55'816.1
2017-Oct-17 12:30N 42°21' W 071°03'611.4
2017-Oct-17 12:01N 42°17' W 070°57'3 5.4
2017-Oct-17 11:30N 42°15' W 070°55'714.1
2017-Oct-17 11:01N 42°21' W 071°01'1 2.8
2017-Oct-17 10:30N 42°21' W 071°03'816.6
2017-Oct-17 10:00N 42°15' W 070°55'0 0.0
2017-Oct-17 09:30N 42°15' W 070°55'0 0.0
2017-Oct-17 00:15N 42°15' W 070°55'0 0.0
2017-Oct-17 00:01N 42°15' W 070°55'816.7
2017-Oct-16 23:31N 42°21' W 071°03'3 5.4
2017-Oct-16 23:01N 42°20' W 070°60'611.4
2017-Oct-16 22:30N 42°15' W 070°55'816.8
2017-Oct-16 22:00N 42°21' W 071°03'1 2.0
2017-Oct-16 21:31N 42°21' W 071°02'815.0
2017-Oct-16 21:00N 42°15' W 070°55'816.8
2017-Oct-16 20:30N 42°21' W 071°03'0 0.5
2017-Oct-16 20:00N 42°22' W 071°03'0 0.0
2017-Oct-16 19:30N 42°22' W 071°03'1020.5
2017-Oct-16 19:00N 42°19' W 070°49'1810.2
2017-Oct-16 17:13N 42°13' W 070°26'629.7
2017-Oct-16 17:00N 42°15' W 070°34'1326.9
2017-Oct-16 16:31N 42°19' W 070°51'918.0
2017-Oct-16 16:01N 42°22' W 071°03'0 0.0
2017-Oct-16 15:30N 42°22' W 071°03'0 0.0
2017-Oct-16 15:01N 42°22' W 071°03'0 0.0
2017-Oct-16 14:31N 42°22' W 071°03'0 0.0
2017-Oct-16 13:31N 42°22' W 071°03'1 1.1
2017-Oct-16 13:01N 42°22' W 071°02'0 0.8
2017-Oct-16 12:31N 42°21' W 071°03'816.4
2017-Oct-16 12:01N 42°15' W 070°55'3 5.9
2017-Oct-16 11:31N 42°17' W 070°58'510.1
2017-Oct-16 11:00N 42°21' W 071°02'816.0
2017-Oct-16 10:31N 42°15' W 070°55'1 1.5
2017-Oct-16 10:01N 42°16' W 070°55'1 1.5
2017-Oct-16 09:31N 42°15' W 070°55'4 0.3
2017-Oct-15 20:24N 42°19' W 070°59'410.9
2017-Oct-15 20:00N 42°22' W 071°03'0 0.3
2017-Oct-15 19:31N 42°22' W 071°03'1426.7
2017-Oct-15 19:00N 42°17' W 070°45'2214.6
2017-Oct-15 17:31N 42°09' W 070°18'1021.1
2017-Oct-15 17:03N 42°14' W 070°30'129.8
2017-Oct-15 17:00N 42°14' W 070°31'1530.4
2017-Oct-15 16:30N 42°19' W 070°51'918.7
2017-Oct-15 16:00N 42°22' W 071°03'0 0.0
2017-Oct-15 15:30N 42°22' W 071°03'0 0.0
2017-Oct-15 15:00N 42°22' W 071°03'1 0.5
2017-Oct-15 14:00N 42°22' W 071°02'1 2.2
2017-Oct-15 13:31N 42°21' W 071°01'714.4
2017-Oct-15 13:01N 42°15' W 070°55'0 0.0
2017-Oct-15 12:30N 42°15' W 070°55'0 0.0
2017-Oct-15 12:01N 42°15' W 070°55'0 0.0
2017-Oct-15 11:31N 42°15' W 070°55'1 0.1
2017-Oct-14 20:59N 42°16' W 070°56'715.3
2017-Oct-14 20:30N 42°22' W 071°03'0 0.0
2017-Oct-14 20:00N 42°22' W 071°03'0 0.0
2017-Oct-14 19:30N 42°22' W 071°03'917.7
2017-Oct-14 19:01N 42°19' W 070°51'1631.4
2017-Oct-14 18:30N 42°13' W 070°32'11 9.6
2017-Oct-14 17:23N 42°10' W 070°18'1126.9
2017-Oct-14 17:00N 42°13' W 070°31'1530.7
2017-Oct-14 16:31N 42°19' W 070°50'1019.5
2017-Oct-14 16:01N 42°22' W 071°03'0 0.0
2017-Oct-14 15:31N 42°22' W 071°03'0 0.0
2017-Oct-14 15:01N 42°22' W 071°03'0 0.0
2017-Oct-14 14:30N 42°22' W 071°03'0 0.0
2017-Oct-14 14:00N 42°22' W 071°03'1 2.6
2017-Oct-14 13:31N 42°23' W 071°03'0 0.0
2017-Oct-14 13:01N 42°23' W 071°03'0 0.0
2017-Oct-14 12:30N 42°23' W 071°03'2 4.0
2017-Oct-14 12:01N 42°21' W 071°02'815.0
2017-Oct-14 11:30N 42°15' W 070°55'1 0.1
2017-Oct-14 00:53N 42°16' W 070°56'818.4
2017-Oct-14 00:28N 42°21' W 071°03'3 5.7
2017-Oct-14 00:00N 42°20' W 070°60'611.0
2017-Oct-13 23:29N 42°16' W 070°55'816.9
2017-Oct-13 23:00N 42°21' W 071°03'3 5.8
2017-Oct-13 22:30N 42°20' W 070°60'611.1
2017-Oct-13 22:00N 42°15' W 070°55'612.9
2017-Oct-13 21:31N 42°20' W 071°00'2 3.6
2017-Oct-13 21:00N 42°22' W 071°02'0 0.4
2017-Oct-13 20:30N 42°22' W 071°02'0 0.7
2017-Oct-13 20:00N 42°22' W 071°03'919.0
2017-Oct-13 19:30N 42°19' W 070°51'19 8.3
2017-Oct-13 17:10N 42°14' W 070°25'529.4
2017-Oct-13 16:59N 42°14' W 070°33'1429.4
2017-Oct-13 16:30N 42°19' W 070°50'1019.1
2017-Oct-13 16:00N 42°22' W 071°03'0 0.0
2017-Oct-13 15:30N 42°22' W 071°03'0 0.0
2017-Oct-13 15:00N 42°22' W 071°03'0 0.0
2017-Oct-13 14:30N 42°22' W 071°03'0 0.0
2017-Oct-13 14:00N 42°22' W 071°03'0 0.0
2017-Oct-13 13:30N 42°22' W 071°03'5 9.1
2017-Oct-13 13:01N 42°18' W 070°59'4 7.3
2017-Oct-13 12:30N 42°16' W 070°55'816.2
2017-Oct-13 12:01N 42°21' W 071°03'611.3
2017-Oct-13 11:31N 42°17' W 070°58'3 5.5
2017-Oct-13 11:01N 42°15' W 070°55'1 1.5
2017-Oct-13 10:30N 42°16' W 070°55'0 0.0
2017-Oct-13 10:01N 42°16' W 070°55'1 1.5
2017-Oct-13 09:30N 42°15' W 070°55'0 0.0
2017-Oct-13 01:06N 42°15' W 070°55'0 3.4
2017-Oct-13 01:00N 42°16' W 070°55'816.4
2017-Oct-13 00:30N 42°21' W 071°03'714.8
2017-Oct-13 00:01N 42°16' W 070°56'1 1.2
2017-Oct-12 23:31N 42°16' W 070°55'815.8
2017-Oct-12 23:00N 42°21' W 071°03'4 8.0
2017-Oct-12 22:31N 42°19' W 070°59'4 8.8
2017-Oct-12 22:00N 42°15' W 070°55'714.1
2017-Oct-12 21:31N 42°21' W 071°01'  
Track history (hours):
 
Tides and Currents Weather Stations Pressure Air Temp Water Temp Dewpoint Dewpoint Depression Visibility Wind Speed Wind Dir Waves Ship Positions

Salacia

Owner: Boston Harbor Cruises, Boston, MA. More information available from US FCC via Universal Licensing System and Coast Guard Vessel Documentation Center.

Last reported at 2017-Oct-22 21:22 UTC. Time now 2017-Oct-22 23:09 UTC.
Position N 42°15' W 070°55'.

Length 44 m.

Type: High speed craft. MMSI: 367447520.

Date/timePositionNaut miles runAvg speedWind from/ knotsBaromVisibWave heightAir tempDewpointWater temp
2017-Oct-22 21:22N 42°15' W 070°55'821.5
2017-Oct-22 21:00N 42°21' W 071°02'1 1.6
2017-Oct-22 20:30N 42°22' W 071°03'0 0.0
2017-Oct-22 20:00N 42°22' W 071°03'1122.8
2017-Oct-22 19:30N 42°21' W 070°48'1631.4
2017-Oct-22 19:00N 42°21' W 070°26'5 9.7
2017-Oct-22 18:30N 42°21' W 070°20'1 3.0
2017-Oct-22 18:00N 42°22' W 070°21'3 5.6
2017-Oct-22 17:31N 42°22' W 070°25'3 6.9
2017-Oct-22 17:01N 42°21' W 070°30'1530.8
2017-Oct-22 16:30N 42°19' W 070°50'1017.6
2017-Oct-22 15:58N 42°22' W 071°03'0 0.0
2017-Oct-22 15:30N 42°22' W 071°03'0 0.0
2017-Oct-22 15:00N 42°22' W 071°03'0 0.0
2017-Oct-22 14:30N 42°22' W 071°03'1 0.9
2017-Oct-22 13:54N 42°22' W 071°02'0 0.5
2017-Oct-22 13:30N 42°22' W 071°02'811.6
2017-Oct-22 12:49N 42°15' W 070°55'0 0.0
2017-Oct-21 21:21N 42°16' W 070°55'822.5
2017-Oct-21 21:00N 42°21' W 071°02'1 1.2
2017-Oct-21 20:30N 42°22' W 071°03'0 0.0
2017-Oct-21 19:58N 42°22' W 071°03'919.4
2017-Oct-21 19:31N 42°24' W 070°51'1529.8
2017-Oct-21 19:00N 42°34' W 070°37'611.5
2017-Oct-21 18:31N 42°38' W 070°31'1 2.7
2017-Oct-21 18:01N 42°37' W 070°29'0 0.2
2017-Oct-21 17:31N 42°37' W 070°30'917.2
2017-Oct-21 17:00N 42°31' W 070°39'1830.2
2017-Oct-21 16:25N 42°20' W 070°58'4 7.1
2017-Oct-21 15:52N 42°22' W 071°03'1 1.6
2017-Oct-21 15:31N 42°22' W 071°02'1 0.3
2017-Oct-21 10:16N 42°23' W 071°03'1 4.6
2017-Oct-21 10:00N 42°22' W 071°02'816.9
2017-Oct-21 09:30N 42°15' W 070°55'0 0.0
2017-Oct-21 01:02N 42°15' W 070°55'0 6.6
2017-Oct-21 00:59N 42°16' W 070°55'810.8
2017-Oct-21 00:15N 42°21' W 071°03'517.9
2017-Oct-20 23:59N 42°18' W 070°58'4 7.6
2017-Oct-20 23:30N 42°15' W 070°55'815.0
2017-Oct-20 22:57N 42°21' W 071°03'3 6.3
2017-Oct-20 22:30N 42°20' W 070°60'6 9.8
2017-Oct-20 21:56N 42°15' W 070°55'717.6
2017-Oct-20 21:30N 42°21' W 071°02'1 2.2
2017-Oct-20 21:00N 42°22' W 071°03'0 0.0
2017-Oct-20 20:30N 42°22' W 071°03'0 0.0
2017-Oct-20 20:00N 42°22' W 071°03'1122.9
2017-Oct-20 19:30N 42°18' W 070°48'2411.4
2017-Oct-20 17:22N 42°12' W 070°17'1131.1
2017-Oct-20 17:01N 42°16' W 070°31'1631.4
2017-Oct-20 16:30N 42°19' W 070°52'912.7
2017-Oct-20 15:49N 42°22' W 071°03'0 0.0
2017-Oct-20 15:30N 42°22' W 071°03'0 0.0
2017-Oct-20 14:54N 42°22' W 071°03'0 0.0
2017-Oct-20 14:28N 42°22' W 071°03'0 0.3
2017-Oct-20 13:30N 42°21' W 071°03'612.0
2017-Oct-20 13:00N 42°17' W 070°57'2 3.8
2017-Oct-20 12:30N 42°16' W 070°55'811.2
2017-Oct-20 11:48N 42°21' W 071°03'518.5
2017-Oct-20 11:30N 42°17' W 070°58'3 5.7
2017-Oct-20 11:00N 42°15' W 070°55'1 1.0
2017-Oct-20 10:15N 42°16' W 070°55'0 0.0
2017-Oct-20 09:54N 42°16' W 070°55'1 1.6
2017-Oct-20 09:26N 42°15' W 070°55'0 0.0
2017-Oct-20 00:57N 42°15' W 070°55'818.8
2017-Oct-20 00:31N 42°21' W 071°03'4 8.7
2017-Oct-20 00:01N 42°18' W 070°59'4 8.0
2017-Oct-19 23:30N 42°15' W 070°55'816.6
2017-Oct-19 23:00N 42°21' W 071°03'2 4.1
2017-Oct-19 22:31N 42°21' W 071°00'713.0
2017-Oct-19 22:00N 42°15' W 070°55'713.9
2017-Oct-19 21:31N 42°21' W 071°01'1 2.8
2017-Oct-19 21:00N 42°21' W 071°03'0 0.5
2017-Oct-19 20:30N 42°22' W 071°03'0 0.0
2017-Oct-19 20:00N 42°22' W 071°03'0 0.0
2017-Oct-19 19:30N 42°22' W 071°03'0 0.5
2017-Oct-19 19:01N 42°21' W 071°03'816.7
2017-Oct-19 18:30N 42°15' W 070°55'0 0.8
2017-Oct-19 18:01N 42°16' W 070°55'816.1
2017-Oct-19 17:30N 42°21' W 071°03'0 0.5
2017-Oct-19 17:00N 42°22' W 071°03'0 0.0
2017-Oct-19 16:30N 42°22' W 071°03'0 0.0
2017-Oct-19 16:00N 42°22' W 071°03'1 1.5
2017-Oct-19 15:31N 42°21' W 071°02'815.6
2017-Oct-19 15:00N 42°15' W 070°55'1 1.0
2017-Oct-19 14:30N 42°16' W 070°55'815.9
2017-Oct-19 14:00N 42°21' W 071°03'1 1.3
2017-Oct-19 13:30N 42°22' W 071°02'510.2
2017-Oct-19 13:01N 42°18' W 070°58'3 5.3
2017-Oct-19 12:30N 42°16' W 070°55'815.8
2017-Oct-19 12:00N 42°21' W 071°03'611.5
2017-Oct-19 11:31N 42°17' W 070°57'3 5.1
2017-Oct-19 11:01N 42°15' W 070°55'1 1.2
2017-Oct-19 10:30N 42°16' W 070°55'0 0.0
2017-Oct-19 10:00N 42°16' W 070°55'1 1.5
2017-Oct-19 09:30N 42°15' W 070°55'0 0.0
2017-Oct-19 00:58N 42°15' W 070°55'818.2
2017-Oct-19 00:30N 42°21' W 071°03'3 6.3
2017-Oct-19 00:00N 42°19' W 070°60'510.6
2017-Oct-18 23:30N 42°15' W 070°55'816.7
2017-Oct-18 23:00N 42°21' W 071°03'3 6.5
2017-Oct-18 22:31N 42°19' W 070°60'510.3
2017-Oct-18 22:00N 42°15' W 070°55'612.9
2017-Oct-18 21:30N 42°20' W 071°00'2 3.9
2017-Oct-18 21:01N 42°21' W 071°03'0 0.5
2017-Oct-18 20:30N 42°22' W 071°03'0 0.0
2017-Oct-18 20:00N 42°22' W 071°03'0 0.0
2017-Oct-18 19:30N 42°22' W 071°03'0 0.5
2017-Oct-18 19:00N 42°21' W 071°03'816.5
2017-Oct-18 18:30N 42°15' W 070°55'0 0.0
2017-Oct-18 18:00N 42°15' W 070°55'816.7
2017-Oct-18 17:30N 42°21' W 071°03'2 0.6
2017-Oct-18 14:43N 42°23' W 071°03'1 1.9
2017-Oct-18 14:01N 42°22' W 071°02'0 0.7
2017-Oct-18 13:31N 42°21' W 071°03'611.6
2017-Oct-18 13:01N 42°17' W 070°57'2 3.7
2017-Oct-18 12:30N 42°16' W 070°55'815.6
2017-Oct-18 12:00N 42°21' W 071°03'611.2
2017-Oct-18 11:31N 42°17' W 070°58'3 5.6
2017-Oct-18 11:00N 42°15' W 070°55'1 1.5
2017-Oct-18 10:30N 42°16' W 070°55'0 0.0
2017-Oct-18 10:00N 42°16' W 070°55'1 1.5
2017-Oct-18 09:30N 42°15' W 070°55'0 0.0
2017-Oct-18 00:55N 42°15' W 070°55'819.9
2017-Oct-18 00:30N 42°21' W 071°03'3 5.9
2017-Oct-18 00:00N 42°20' W 070°60'510.8
2017-Oct-17 23:30N 42°15' W 070°55'816.6
2017-Oct-17 23:00N 42°21' W 071°03'3 6.0
2017-Oct-17 22:31N 42°20' W 070°60'510.8
2017-Oct-17 22:00N 42°15' W 070°55'713.1
2017-Oct-17 21:31N 42°20' W 071°01'2 3.7
2017-Oct-17 21:00N 42°21' W 071°03'0 0.4
2017-Oct-17 20:30N 42°22' W 071°03'0 0.0
2017-Oct-17 20:00N 42°22' W 071°03'815.2
2017-Oct-17 19:31N 42°19' W 070°53'18 7.3
2017-Oct-17 16:59N 42°14' W 070°29'1532.0
2017-Oct-17 16:31N 42°18' W 070°49'1121.0
2017-Oct-17 16:00N 42°22' W 071°03'0 0.0
2017-Oct-17 15:30N 42°22' W 071°03'0 0.0
2017-Oct-17 15:00N 42°22' W 071°03'1 1.1
2017-Oct-17 14:30N 42°22' W 071°02'0 0.7
2017-Oct-17 14:00N 42°21' W 071°02'510.5
2017-Oct-17 13:30N 42°17' W 070°58'3 5.1
2017-Oct-17 13:00N 42°16' W 070°55'816.1
2017-Oct-17 12:30N 42°21' W 071°03'611.4
2017-Oct-17 12:01N 42°17' W 070°57'3 5.4
2017-Oct-17 11:30N 42°15' W 070°55'714.1
2017-Oct-17 11:01N 42°21' W 071°01'1 2.8
2017-Oct-17 10:30N 42°21' W 071°03'816.6
2017-Oct-17 10:00N 42°15' W 070°55'0 0.0
2017-Oct-17 09:30N 42°15' W 070°55'0 0.0
2017-Oct-17 00:15N 42°15' W 070°55'0 0.0
2017-Oct-17 00:01N 42°15' W 070°55'816.7
2017-Oct-16 23:31N 42°21' W 071°03'3 5.4
2017-Oct-16 23:01N 42°20' W 070°60'611.4
2017-Oct-16 22:30N 42°15' W 070°55'816.8
2017-Oct-16 22:00N 42°21' W 071°03'1 2.0
2017-Oct-16 21:31N 42°21' W 071°02'815.0
2017-Oct-16 21:00N 42°15' W 070°55'816.8
2017-Oct-16 20:30N 42°21' W 071°03'0 0.5
2017-Oct-16 20:00N 42°22' W 071°03'0 0.0
2017-Oct-16 19:30N 42°22' W 071°03'1020.5
2017-Oct-16 19:00N 42°19' W 070°49'1810.2
2017-Oct-16 17:13N 42°13' W 070°26'629.7
2017-Oct-16 17:00N 42°15' W 070°34'1326.9
2017-Oct-16 16:31N 42°19' W 070°51'918.0
2017-Oct-16 16:01N 42°22' W 071°03'0 0.0
2017-Oct-16 15:30N 42°22' W 071°03'0 0.0
2017-Oct-16 15:01N 42°22' W 071°03'0 0.0
2017-Oct-16 14:31N 42°22' W 071°03'0 0.0
2017-Oct-16 13:31N 42°22' W 071°03'1 1.1
2017-Oct-16 13:01N 42°22' W 071°02'0 0.8
2017-Oct-16 12:31N 42°21' W 071°03'816.4
2017-Oct-16 12:01N 42°15' W 070°55'3 5.9
2017-Oct-16 11:31N 42°17' W 070°58'510.1
2017-Oct-16 11:00N 42°21' W 071°02'816.0
2017-Oct-16 10:31N 42°15' W 070°55'1 1.5
2017-Oct-16 10:01N 42°16' W 070°55'1 1.5
2017-Oct-16 09:31N 42°15' W 070°55'4 0.3
2017-Oct-15 20:24N 42°19' W 070°59'410.9
2017-Oct-15 20:00N 42°22' W 071°03'0 0.3
2017-Oct-15 19:31N 42°22' W 071°03'1426.7
2017-Oct-15 19:00N 42°17' W 070°45'2214.6
2017-Oct-15 17:31N 42°09' W 070°18'1021.1
2017-Oct-15 17:03N 42°14' W 070°30'129.8
2017-Oct-15 17:00N 42°14' W 070°31'1530.4
2017-Oct-15 16:30N 42°19' W 070°51'918.7
2017-Oct-15 16:00N 42°22' W 071°03'0 0.0
2017-Oct-15 15:30N 42°22' W 071°03'0 0.0
2017-Oct-15 15:00N 42°22' W 071°03'1 0.5
2017-Oct-15 14:00N 42°22' W 071°02'1 2.2
2017-Oct-15 13:31N 42°21' W 071°01'714.4
2017-Oct-15 13:01N 42°15' W 070°55'0 0.0
2017-Oct-15 12:30N 42°15' W 070°55'0 0.0
2017-Oct-15 12:01N 42°15' W 070°55'0 0.0
2017-Oct-15 11:31N 42°15' W 070°55'1 0.1
2017-Oct-14 20:59N 42°16' W 070°56'715.3
2017-Oct-14 20:30N 42°22' W 071°03'0 0.0
2017-Oct-14 20:00N 42°22' W 071°03'0 0.0
2017-Oct-14 19:30N 42°22' W 071°03'917.7
2017-Oct-14 19:01N 42°19' W 070°51'1631.4
2017-Oct-14 18:30N 42°13' W 070°32'11 9.6
2017-Oct-14 17:23N 42°10' W 070°18'1126.9
2017-Oct-14 17:00N 42°13' W 070°31'1530.7
2017-Oct-14 16:31N 42°19' W 070°50'1019.5
2017-Oct-14 16:01N 42°22' W 071°03'0 0.0
2017-Oct-14 15:31N 42°22' W 071°03'0 0.0
2017-Oct-14 15:01N 42°22' W 071°03'0 0.0
2017-Oct-14 14:30N 42°22' W 071°03'0 0.0
2017-Oct-14 14:00N 42°22' W 071°03'1 2.6
2017-Oct-14 13:31N 42°23' W 071°03'0 0.0
2017-Oct-14 13:01N 42°23' W 071°03'0 0.0
2017-Oct-14 12:30N 42°23' W 071°03'2 4.0
2017-Oct-14 12:01N 42°21' W 071°02'815.0
2017-Oct-14 11:30N 42°15' W 070°55'1 0.1
2017-Oct-14 00:53N 42°16' W 070°56'818.4
2017-Oct-14 00:28N 42°21' W 071°03'3 5.7
2017-Oct-14 00:00N 42°20' W 070°60'611.0
2017-Oct-13 23:29N 42°16' W 070°55'816.9
2017-Oct-13 23:00N 42°21' W 071°03'3 5.8
2017-Oct-13 22:30N 42°20' W 070°60'611.1
2017-Oct-13 22:00N 42°15' W 070°55'612.9
2017-Oct-13 21:31N 42°20' W 071°00'2 3.6
2017-Oct-13 21:00N 42°22' W 071°02'0 0.4
2017-Oct-13 20:30N 42°22' W 071°02'0 0.7
2017-Oct-13 20:00N 42°22' W 071°03'919.0
2017-Oct-13 19:30N 42°19' W 070°51'19 8.3
2017-Oct-13 17:10N 42°14' W 070°25'529.4
2017-Oct-13 16:59N 42°14' W 070°33'1429.4
2017-Oct-13 16:30N 42°19' W 070°50'1019.1
2017-Oct-13 16:00N 42°22' W 071°03'0 0.0
2017-Oct-13 15:30N 42°22' W 071°03'0 0.0
2017-Oct-13 15:00N 42°22' W 071°03'0 0.0
2017-Oct-13 14:30N 42°22' W 071°03'0 0.0
2017-Oct-13 14:00N 42°22' W 071°03'0 0.0
2017-Oct-13 13:30N 42°22' W 071°03'5 9.1
2017-Oct-13 13:01N 42°18' W 070°59'4 7.3
2017-Oct-13 12:30N 42°16' W 070°55'816.2
2017-Oct-13 12:01N 42°21' W 071°03'611.3
2017-Oct-13 11:31N 42°17' W 070°58'3 5.5
2017-Oct-13 11:01N 42°15' W 070°55'1 1.5
2017-Oct-13 10:30N 42°16' W 070°55'0 0.0
2017-Oct-13 10:01N 42°16' W 070°55'1 1.5
2017-Oct-13 09:30N 42°15' W 070°55'0 0.0
2017-Oct-13 01:06N 42°15' W 070°55'0 3.4
2017-Oct-13 01:00N 42°16' W 070°55'816.4
2017-Oct-13 00:30N 42°21' W 071°03'714.8
2017-Oct-13 00:01N 42°16' W 070°56'1 1.2
2017-Oct-12 23:31N 42°16' W 070°55'815.8
2017-Oct-12 23:00N 42°21' W 071°03'4 8.0
2017-Oct-12 22:31N 42°19' W 070°59'4 8.8
2017-Oct-12 22:00N 42°15' W 070°55'714.1
2017-Oct-12 21:31N 42°21' W 071°01'  

Dump ship's entire track history